sensor_id;sensor_type;location;lat;lon;timestamp;pressure;altitude;pressure_sealevel;temperature;humidity
35443;BME280;21561;55.654;37.592;2022-07-06T00:00:00;99282.41;;;19.58;95.17
35443;BME280;21561;55.654;37.592;2022-07-06T00:02:29;99278.81;;;19.59;95.45
35443;BME280;21561;55.654;37.592;2022-07-06T00:04:56;99278.81;;;19.59;95.67
35443;BME280;21561;55.654;37.592;2022-07-06T00:07:24;99284.88;;;19.61;95.60
35443;BME280;21561;55.654;37.592;2022-07-06T00:09:51;99277.97;;;19.59;95.65
35443;BME280;21561;55.654;37.592;2022-07-06T00:12:18;99275.41;;;19.57;96.03
35443;BME280;21561;55.654;37.592;2022-07-06T00:14:45;99274.56;;;19.57;95.94
35443;BME280;21561;55.654;37.592;2022-07-06T00:17:12;99270.34;;;19.54;96.46
35443;BME280;21561;55.654;37.592;2022-07-06T00:19:39;99268.75;;;19.50;96.60
35443;BME280;21561;55.654;37.592;2022-07-06T00:22:05;99268.94;;;19.47;96.40
35443;BME280;21561;55.654;37.592;2022-07-06T00:24:32;99269.78;;;19.48;96.62
35443;BME280;21561;55.654;37.592;2022-07-06T00:26:59;99265.34;;;19.48;96.29
35443;BME280;21561;55.654;37.592;2022-07-06T00:29:26;99255.78;;;19.47;96.06
35443;BME280;21561;55.654;37.592;2022-07-06T00:31:53;99255.53;;;19.52;96.06
35443;BME280;21561;55.654;37.592;2022-07-06T00:34:20;99248.66;;;19.49;95.67
35443;BME280;21561;55.654;37.592;2022-07-06T00:36:47;99256.56;;;19.49;95.55
35443;BME280;21561;55.654;37.592;2022-07-06T00:39:13;99248.72;;;19.48;95.96
35443;BME280;21561;55.654;37.592;2022-07-06T00:41:40;99250.41;;;19.49;95.13
35443;BME280;21561;55.654;37.592;2022-07-06T00:44:08;99252.97;;;19.50;95.27
35443;BME280;21561;55.654;37.592;2022-07-06T00:46:36;99252.00;;;19.53;95.11
35443;BME280;21561;55.654;37.592;2022-07-06T00:49:03;99258.09;;;19.53;95.46
35443;BME280;21561;55.654;37.592;2022-07-06T00:51:32;99268.63;;;19.53;94.93
35443;BME280;21561;55.654;37.592;2022-07-06T00:54:04;99266.75;;;19.55;94.98
35443;BME280;21561;55.654;37.592;2022-07-06T00:56:32;99257.78;;;19.59;93.99
35443;BME280;21561;55.654;37.592;2022-07-06T00:59:02;99263.72;;;19.63;94.26
35443;BME280;21561;55.654;37.592;2022-07-06T01:01:30;99269.94;;;19.62;93.92
35443;BME280;21561;55.654;37.592;2022-07-06T01:03:57;99264.59;;;19.63;93.29
35443;BME280;21561;55.654;37.592;2022-07-06T01:06:24;99266.13;;;19.68;92.77
35443;BME280;21561;55.654;37.592;2022-07-06T01:08:51;99256.31;;;19.71;92.31
35443;BME280;21561;55.654;37.592;2022-07-06T01:11:18;99259.66;;;19.75;92.35
35443;BME280;21561;55.654;37.592;2022-07-06T01:13:47;99259.53;;;19.78;91.43
35443;BME280;21561;55.654;37.592;2022-07-06T01:16:15;99260.16;;;19.83;91.40
35443;BME280;21561;55.654;37.592;2022-07-06T01:18:42;99258.16;;;19.69;92.80
35443;BME280;21561;55.654;37.592;2022-07-06T01:21:14;99264.94;;;19.75;91.49
35443;BME280;21561;55.654;37.592;2022-07-06T01:23:45;99267.25;;;19.81;91.07
35443;BME280;21561;55.654;37.592;2022-07-06T01:26:15;99267.94;;;19.84;90.93
35443;BME280;21561;55.654;37.592;2022-07-06T01:28:45;99264.06;;;19.92;90.32
35443;BME280;21561;55.654;37.592;2022-07-06T01:33:44;99263.69;;;19.99;90.06
35443;BME280;21561;55.654;37.592;2022-07-06T01:36:11;99264.44;;;20.01;89.40
35443;BME280;21561;55.654;37.592;2022-07-06T01:38:49;99261.56;;;20.06;89.10
35443;BME280;21561;55.654;37.592;2022-07-06T01:41:17;99263.28;;;20.07;88.79
35443;BME280;21561;55.654;37.592;2022-07-06T01:43:45;99263.81;;;20.14;87.95
35443;BME280;21561;55.654;37.592;2022-07-06T01:46:12;99267.06;;;20.19;87.77
35443;BME280;21561;55.654;37.592;2022-07-06T01:48:39;99268.75;;;20.20;88.05
35443;BME280;21561;55.654;37.592;2022-07-06T01:51:06;99271.28;;;20.21;88.24
35443;BME280;21561;55.654;37.592;2022-07-06T01:53:34;99276.56;;;20.21;88.08
35443;BME280;21561;55.654;37.592;2022-07-06T01:56:01;99272.31;;;20.19;88.54
35443;BME280;21561;55.654;37.592;2022-07-06T01:58:27;99274.00;;;20.20;88.42
35443;BME280;21561;55.654;37.592;2022-07-06T02:00:54;99270.47;;;20.21;88.00
35443;BME280;21561;55.654;37.592;2022-07-06T02:03:22;99271.97;;;20.25;87.77
35443;BME280;21561;55.654;37.592;2022-07-06T02:05:49;99271.84;;;20.28;87.45
35443;BME280;21561;55.654;37.592;2022-07-06T02:08:16;99266.56;;;20.28;87.81
35443;BME280;21561;55.654;37.592;2022-07-06T02:10:42;99273.50;;;20.29;87.34
35443;BME280;21561;55.654;37.592;2022-07-06T02:13:09;99269.81;;;20.33;87.09
35443;BME280;21561;55.654;37.592;2022-07-06T02:15:36;99274.03;;;20.36;86.88
35443;BME280;21561;55.654;37.592;2022-07-06T02:18:03;99275.66;;;20.38;87.13
35443;BME280;21561;55.654;37.592;2022-07-06T02:20:30;99276.59;;;20.37;87.63
35443;BME280;21561;55.654;37.592;2022-07-06T02:22:57;99278.41;;;20.37;87.50
35443;BME280;21561;55.654;37.592;2022-07-06T02:25:24;99286.31;;;20.37;87.35
35443;BME280;21561;55.654;37.592;2022-07-06T02:27:51;99282.63;;;20.39;88.07
35443;BME280;21561;55.654;37.592;2022-07-06T02:30:18;99281.72;;;20.40;87.80
35443;BME280;21561;55.654;37.592;2022-07-06T02:32:45;99283.25;;;20.45;88.07
35443;BME280;21561;55.654;37.592;2022-07-06T02:35:12;99277.63;;;20.51;87.53
35443;BME280;21561;55.654;37.592;2022-07-06T02:37:39;99291.00;;;20.48;90.49
35443;BME280;21561;55.654;37.592;2022-07-06T02:40:06;99290.88;;;20.33;92.59
35443;BME280;21561;55.654;37.592;2022-07-06T02:42:34;99288.03;;;20.20;94.74
35443;BME280;21561;55.654;37.592;2022-07-06T02:45:01;99289.69;;;20.06;95.68
35443;BME280;21561;55.654;37.592;2022-07-06T02:47:28;99285.44;;;20.03;96.97
35443;BME280;21561;55.654;37.592;2022-07-06T02:49:56;99291.78;;;19.99;97.96
35443;BME280;21561;55.654;37.592;2022-07-06T02:52:22;99288.22;;;20.00;93.79
35443;BME280;21561;55.654;37.592;2022-07-06T02:54:49;99289.69;;;20.06;96.96
35443;BME280;21561;55.654;37.592;2022-07-06T02:57:17;99293.34;;;20.03;95.27
35443;BME280;21561;55.654;37.592;2022-07-06T02:59:44;99293.53;;;20.16;92.38
35443;BME280;21561;55.654;37.592;2022-07-06T03:02:12;99283.00;;;20.16;94.86
35443;BME280;21561;55.654;37.592;2022-07-06T03:04:39;99280.81;;;20.24;91.89
35443;BME280;21561;55.654;37.592;2022-07-06T03:07:06;99283.91;;;20.32;91.25
35443;BME280;21561;55.654;37.592;2022-07-06T03:09:32;99278.28;;;20.38;90.77
35443;BME280;21561;55.654;37.592;2022-07-06T03:11:59;99275.34;;;20.45;90.35
35443;BME280;21561;55.654;37.592;2022-07-06T03:14:26;99274.91;;;20.52;89.61
35443;BME280;21561;55.654;37.592;2022-07-06T03:16:54;99265.75;;;20.59;90.72
35443;BME280;21561;55.654;37.592;2022-07-06T03:19:21;99269.84;;;20.65;90.77
35443;BME280;21561;55.654;37.592;2022-07-06T03:21:48;99265.53;;;20.64;91.61
35443;BME280;21561;55.654;37.592;2022-07-06T03:24:15;99262.03;;;20.64;91.60
35443;BME280;21561;55.654;37.592;2022-07-06T03:26:41;99273.38;;;20.66;91.20
35443;BME280;21561;55.654;37.592;2022-07-06T03:29:08;99271.31;;;20.71;92.35
35443;BME280;21561;55.654;37.592;2022-07-06T03:31:35;99272.94;;;20.73;90.51
35443;BME280;21561;55.654;37.592;2022-07-06T03:34:02;99272.59;;;20.79;89.40
35443;BME280;21561;55.654;37.592;2022-07-06T03:36:29;99274.91;;;20.86;89.53
35443;BME280;21561;55.654;37.592;2022-07-06T03:39:04;99275.50;;;20.91;88.42
35443;BME280;21561;55.654;37.592;2022-07-06T03:41:31;99276.06;;;20.96;88.18
35443;BME280;21561;55.654;37.592;2022-07-06T03:43:59;99273.28;;;20.99;87.75
35443;BME280;21561;55.654;37.592;2022-07-06T03:46:26;99268.59;;;21.04;88.15
35443;BME280;21561;55.654;37.592;2022-07-06T03:48:54;99272.75;;;21.08;87.86
35443;BME280;21561;55.654;37.592;2022-07-06T03:51:21;99275.13;;;21.13;87.76
35443;BME280;21561;55.654;37.592;2022-07-06T03:53:48;99270.38;;;21.20;87.00
35443;BME280;21561;55.654;37.592;2022-07-06T03:56:15;99276.81;;;21.30;86.29
35443;BME280;21561;55.654;37.592;2022-07-06T03:59:01;99276.47;;;21.36;85.25
35443;BME280;21561;55.654;37.592;2022-07-06T04:01:28;99282.34;;;21.41;84.95
35443;BME280;21561;55.654;37.592;2022-07-06T04:03:56;99280.19;;;21.48;84.58
35443;BME280;21561;55.654;37.592;2022-07-06T04:06:25;99274.59;;;21.54;84.53
35443;BME280;21561;55.654;37.592;2022-07-06T04:08:52;99278.66;;;21.60;83.78
35443;BME280;21561;55.654;37.592;2022-07-06T04:11:19;99286.31;;;21.64;84.26
35443;BME280;21561;55.654;37.592;2022-07-06T04:13:45;99278.88;;;21.71;84.29
35443;BME280;21561;55.654;37.592;2022-07-06T04:16:12;99275.88;;;21.77;84.04
35443;BME280;21561;55.654;37.592;2022-07-06T04:18:40;99272.94;;;21.82;82.84
35443;BME280;21561;55.654;37.592;2022-07-06T04:21:07;99271.94;;;21.84;83.66
35443;BME280;21561;55.654;37.592;2022-07-06T04:23:34;99264.59;;;21.89;82.45
35443;BME280;21561;55.654;37.592;2022-07-06T04:26:00;99272.03;;;21.97;81.77
35443;BME280;21561;55.654;37.592;2022-07-06T04:28:27;99267.59;;;21.98;84.49
35443;BME280;21561;55.654;37.592;2022-07-06T04:30:54;99268.44;;;21.98;82.98
35443;BME280;21561;55.654;37.592;2022-07-06T04:33:21;99266.47;;;22.02;82.03
35443;BME280;21561;55.654;37.592;2022-07-06T04:35:48;99267.78;;;22.09;82.19
35443;BME280;21561;55.654;37.592;2022-07-06T04:38:15;99268.38;;;22.14;81.44
35443;BME280;21561;55.654;37.592;2022-07-06T04:40:42;99267.78;;;22.23;81.03
35443;BME280;21561;55.654;37.592;2022-07-06T04:43:09;99258.56;;;22.30;82.80
35443;BME280;21561;55.654;37.592;2022-07-06T04:45:36;99267.66;;;22.41;81.22
35443;BME280;21561;55.654;37.592;2022-07-06T04:48:03;99273.31;;;22.49;80.20
35443;BME280;21561;55.654;37.592;2022-07-06T04:50:30;99269.13;;;22.59;79.88
35443;BME280;21561;55.654;37.592;2022-07-06T04:53:05;99268.94;;;22.62;79.26
35443;BME280;21561;55.654;37.592;2022-07-06T04:55:32;99262.72;;;22.63;78.75
35443;BME280;21561;55.654;37.592;2022-07-06T04:57:59;99265.16;;;22.66;78.88
35443;BME280;21561;55.654;37.592;2022-07-06T05:00:26;99264.78;;;22.73;79.20
35443;BME280;21561;55.654;37.592;2022-07-06T05:02:53;99262.78;;;22.76;78.60
35443;BME280;21561;55.654;37.592;2022-07-06T05:05:20;99253.78;;;22.79;78.72
35443;BME280;21561;55.654;37.592;2022-07-06T05:07:47;99255.31;;;22.83;78.76
35443;BME280;21561;55.654;37.592;2022-07-06T05:10:14;99258.72;;;22.85;78.87
35443;BME280;21561;55.654;37.592;2022-07-06T05:12:41;99253.00;;;22.91;77.94
35443;BME280;21561;55.654;37.592;2022-07-06T05:15:08;99253.47;;;22.98;77.02
35443;BME280;21561;55.654;37.592;2022-07-06T05:17:35;99255.84;;;23.02;76.32
35443;BME280;21561;55.654;37.592;2022-07-06T05:20:03;99250.16;;;23.09;76.26
35443;BME280;21561;55.654;37.592;2022-07-06T05:22:30;99244.47;;;23.15;76.00
35443;BME280;21561;55.654;37.592;2022-07-06T05:24:57;99239.81;;;23.18;76.22
35443;BME280;21561;55.654;37.592;2022-07-06T05:27:24;99243.34;;;23.19;75.43
35443;BME280;21561;55.654;37.592;2022-07-06T05:29:51;99244.06;;;23.21;75.69
35443;BME280;21561;55.654;37.592;2022-07-06T05:32:18;99243.66;;;23.27;75.79
35443;BME280;21561;55.654;37.592;2022-07-06T05:34:45;99238.16;;;23.30;74.92
35443;BME280;21561;55.654;37.592;2022-07-06T05:37:12;99246.66;;;23.35;74.77
35443;BME280;21561;55.654;37.592;2022-07-06T05:39:38;99242.66;;;23.42;74.33
35443;BME280;21561;55.654;37.592;2022-07-06T05:42:08;99242.22;;;23.49;74.31
35443;BME280;21561;55.654;37.592;2022-07-06T05:44:35;99238.44;;;23.53;74.43
35443;BME280;21561;55.654;37.592;2022-07-06T05:47:02;99239.72;;;23.60;74.41
35443;BME280;21561;55.654;37.592;2022-07-06T05:49:47;99241.00;;;23.67;73.44
35443;BME280;21561;55.654;37.592;2022-07-06T05:52:33;99242.28;;;23.74;71.98
35443;BME280;21561;55.654;37.592;2022-07-06T05:55:00;99243.69;;;23.80;72.13
35443;BME280;21561;55.654;37.592;2022-07-06T05:57:29;99246.00;;;23.85;71.58
35443;BME280;21561;55.654;37.592;2022-07-06T05:59:55;99243.91;;;23.90;70.80
35443;BME280;21561;55.654;37.592;2022-07-06T06:02:22;99247.19;;;23.93;70.54
35443;BME280;21561;55.654;37.592;2022-07-06T06:04:49;99251.22;;;23.99;70.16
35443;BME280;21561;55.654;37.592;2022-07-06T06:07:16;99246.53;;;24.02;67.61
35443;BME280;21561;55.654;37.592;2022-07-06T06:09:43;99240.94;;;24.07;67.62
35443;BME280;21561;55.654;37.592;2022-07-06T06:12:10;99238.09;;;24.10;67.32
35443;BME280;21561;55.654;37.592;2022-07-06T06:14:37;99239.75;;;24.11;67.18
35443;BME280;21561;55.654;37.592;2022-07-06T06:17:04;99247.59;;;24.13;68.40
35443;BME280;21561;55.654;37.592;2022-07-06T06:19:35;99248.25;;;24.16;69.18
35443;BME280;21561;55.654;37.592;2022-07-06T06:22:03;99244.13;;;24.12;68.10
35443;BME280;21561;55.654;37.592;2022-07-06T06:24:30;99239.75;;;24.11;67.73
35443;BME280;21561;55.654;37.592;2022-07-06T06:26:57;99240.50;;;24.13;68.47
35443;BME280;21561;55.654;37.592;2022-07-06T06:29:25;99234.06;;;24.17;68.92
35443;BME280;21561;55.654;37.592;2022-07-06T06:31:52;99232.13;;;24.19;67.70
35443;BME280;21561;55.654;37.592;2022-07-06T06:34:20;99238.91;;;24.24;68.45
35443;BME280;21561;55.654;37.592;2022-07-06T06:36:47;99227.84;;;24.30;67.46
35443;BME280;21561;55.654;37.592;2022-07-06T06:39:14;99234.41;;;24.37;67.74
35443;BME280;21561;55.654;37.592;2022-07-06T06:41:41;99234.00;;;24.43;68.52
35443;BME280;21561;55.654;37.592;2022-07-06T06:44:08;99239.09;;;24.46;68.32
35443;BME280;21561;55.654;37.592;2022-07-06T06:46:35;99227.31;;;24.50;67.31
35443;BME280;21561;55.654;37.592;2022-07-06T06:49:02;99228.47;;;24.59;66.85
35443;BME280;21561;55.654;37.592;2022-07-06T06:51:29;99227.81;;;24.68;67.29
35443;BME280;21561;55.654;37.592;2022-07-06T06:53:55;99230.16;;;24.73;67.48
35443;BME280;21561;55.654;37.592;2022-07-06T06:56:22;99227.25;;;24.76;67.12
35443;BME280;21561;55.654;37.592;2022-07-06T06:58:49;99222.69;;;24.78;65.97
35443;BME280;21561;55.654;37.592;2022-07-06T07:01:36;99243.47;;;24.84;66.62
35443;BME280;21561;55.654;37.592;2022-07-06T07:04:03;99239.63;;;24.88;66.21
35443;BME280;21561;55.654;37.592;2022-07-06T07:06:30;99250.03;;;24.91;66.33
35443;BME280;21561;55.654;37.592;2022-07-06T07:08:57;99246.41;;;24.92;66.72
35443;BME280;21561;55.654;37.592;2022-07-06T07:11:24;99246.81;;;24.99;66.89
35443;BME280;21561;55.654;37.592;2022-07-06T07:13:51;99236.59;;;25.06;66.14
35443;BME280;21561;55.654;37.592;2022-07-06T07:16:18;99241.91;;;25.06;65.80
35443;BME280;21561;55.654;37.592;2022-07-06T07:18:45;99238.06;;;25.10;66.44
35443;BME280;21561;55.654;37.592;2022-07-06T07:21:12;99239.97;;;25.08;65.73
35443;BME280;21561;55.654;37.592;2022-07-06T07:23:38;99246.00;;;25.10;66.28
35443;BME280;21561;55.654;37.592;2022-07-06T07:26:05;99240.38;;;25.14;66.55
35443;BME280;21561;55.654;37.592;2022-07-06T07:28:33;99242.47;;;25.22;67.44
35443;BME280;21561;55.654;37.592;2022-07-06T07:31:00;99240.13;;;25.30;66.31
35443;BME280;21561;55.654;37.592;2022-07-06T07:33:27;99236.25;;;25.34;65.44
35443;BME280;21561;55.654;37.592;2022-07-06T07:35:54;99237.72;;;25.39;65.52
35443;BME280;21561;55.654;37.592;2022-07-06T07:38:23;99227.94;;;25.39;65.52
35443;BME280;21561;55.654;37.592;2022-07-06T07:40:50;99235.34;;;25.47;65.47
35443;BME280;21561;55.654;37.592;2022-07-06T07:43:17;99225.69;;;25.57;64.98
35443;BME280;21561;55.654;37.592;2022-07-06T07:45:44;99231.16;;;25.67;64.09
35443;BME280;21561;55.654;37.592;2022-07-06T07:48:11;99228.91;;;25.74;64.11
35443;BME280;21561;55.654;37.592;2022-07-06T07:50:38;99222.59;;;25.75;64.17
35443;BME280;21561;55.654;37.592;2022-07-06T07:53:04;99225.75;;;25.80;64.09
35443;BME280;21561;55.654;37.592;2022-07-06T07:55:31;99230.34;;;25.89;63.69
35443;BME280;21561;55.654;37.592;2022-07-06T07:58:08;99226.28;;;25.96;62.85
35443;BME280;21561;55.654;37.592;2022-07-06T08:00:36;99240.56;;;26.06;62.45
35443;BME280;21561;55.654;37.592;2022-07-06T08:03:03;99225.56;;;26.05;61.71
35443;BME280;21561;55.654;37.592;2022-07-06T08:05:30;99233.31;;;26.08;62.61
35443;BME280;21561;55.654;37.592;2022-07-06T08:07:57;99228.72;;;26.10;61.66
35443;BME280;21561;55.654;37.592;2022-07-06T08:10:24;99240.44;;;26.08;62.22
35443;BME280;21561;55.654;37.592;2022-07-06T08:12:51;99230.03;;;26.05;61.43
35443;BME280;21561;55.654;37.592;2022-07-06T08:15:18;99220.25;;;26.05;61.12
35443;BME280;21561;55.654;37.592;2022-07-06T08:17:45;99219.06;;;26.09;59.88
35443;BME280;21561;55.654;37.592;2022-07-06T08:20:12;99221.56;;;26.11;60.17
35443;BME280;21561;55.654;37.592;2022-07-06T08:22:39;99224.38;;;26.21;60.64
35443;BME280;21561;55.654;37.592;2022-07-06T08:25:06;99228.72;;;26.33;61.37
35443;BME280;21561;55.654;37.592;2022-07-06T08:27:33;99220.97;;;26.30;61.01
35443;BME280;21561;55.654;37.592;2022-07-06T08:30:02;99239.00;;;26.26;61.70
35443;BME280;21561;55.654;37.592;2022-07-06T08:32:29;99219.66;;;26.24;60.48
35443;BME280;21561;55.654;37.592;2022-07-06T08:35:16;99222.09;;;26.27;59.33
35443;BME280;21561;55.654;37.592;2022-07-06T08:37:43;99229.69;;;26.32;59.36
35443;BME280;21561;55.654;37.592;2022-07-06T08:40:10;99214.72;;;26.31;58.46
35443;BME280;21561;55.654;37.592;2022-07-06T08:42:36;99230.16;;;26.37;59.37
35443;BME280;21561;55.654;37.592;2022-07-06T08:45:06;99214.06;;;26.50;57.04
35443;BME280;21561;55.654;37.592;2022-07-06T08:47:36;99221.69;;;26.55;58.46
35443;BME280;21561;55.654;37.592;2022-07-06T08:50:04;99229.44;;;26.58;58.25
35443;BME280;21561;55.654;37.592;2022-07-06T08:52:32;99225.56;;;26.51;58.18
35443;BME280;21561;55.654;37.592;2022-07-06T08:55:00;99229.56;;;26.56;58.95
35443;BME280;21561;55.654;37.592;2022-07-06T08:57:29;99207.28;;;26.57;57.31
35443;BME280;21561;55.654;37.592;2022-07-06T08:59:56;99213.72;;;26.66;57.43
35443;BME280;21561;55.654;37.592;2022-07-06T09:02:25;99199.19;;;26.70;56.88
35443;BME280;21561;55.654;37.592;2022-07-06T09:04:55;99204.91;;;26.65;57.43
35443;BME280;21561;55.654;37.592;2022-07-06T09:07:27;99204.78;;;26.67;56.42
35443;BME280;21561;55.654;37.592;2022-07-06T09:10:17;99182.00;;;26.74;55.12
35443;BME280;21561;55.654;37.592;2022-07-06T09:12:44;99173.50;;;26.80;54.45
35443;BME280;21561;55.654;37.592;2022-07-06T09:15:11;99193.81;;;26.93;55.27
35443;BME280;21561;55.654;37.592;2022-07-06T09:17:42;99202.00;;;27.01;55.62
35443;BME280;21561;55.654;37.592;2022-07-06T09:20:11;99222.84;;;26.96;56.71
35443;BME280;21561;55.654;37.592;2022-07-06T09:22:39;99206.47;;;27.00;56.39
35443;BME280;21561;55.654;37.592;2022-07-06T09:25:08;99198.00;;;27.07;55.66
35443;BME280;21561;55.654;37.592;2022-07-06T09:27:40;99161.00;;;27.24;54.47
35443;BME280;21561;55.654;37.592;2022-07-06T09:30:09;99170.06;;;27.33;54.47
35443;BME280;21561;55.654;37.592;2022-07-06T09:32:56;99176.06;;;27.56;54.49
35443;BME280;21561;55.654;37.592;2022-07-06T09:35:27;99172.50;;;27.67;54.43
35443;BME280;21561;55.654;37.592;2022-07-06T09:38:04;99141.16;;;27.80;52.85
35443;BME280;21561;55.654;37.592;2022-07-06T09:40:37;99147.16;;;27.73;53.01
35443;BME280;21561;55.654;37.592;2022-07-06T09:43:13;99143.97;;;27.89;51.90
35443;BME280;21561;55.654;37.592;2022-07-06T09:45:45;99141.78;;;27.94;51.70
35443;BME280;21561;55.654;37.592;2022-07-06T09:48:14;99143.56;;;28.24;51.74
35443;BME280;21561;55.654;37.592;2022-07-06T09:50:43;99118.34;;;28.48;50.42
35443;BME280;21561;55.654;37.592;2022-07-06T09:53:13;99133.00;;;28.63;51.09
35443;BME280;21561;55.654;37.592;2022-07-06T09:55:48;99128.25;;;28.57;50.82
35443;BME280;21561;55.654;37.592;2022-07-06T09:58:16;99109.03;;;28.13;50.25
35443;BME280;21561;55.654;37.592;2022-07-06T10:00:44;99172.69;;;27.96;52.37
35443;BME280;21561;55.654;37.592;2022-07-06T10:03:13;99160.13;;;27.87;51.90
35443;BME280;21561;55.654;37.592;2022-07-06T10:05:42;99162.19;;;28.05;52.11
35443;BME280;21561;55.654;37.592;2022-07-06T10:08:10;99126.56;;;28.75;50.32
35443;BME280;21561;55.654;37.592;2022-07-06T10:10:38;99125.16;;;28.71;51.21
35443;BME280;21561;55.654;37.592;2022-07-06T10:13:06;99112.22;;;29.16;49.99
35443;BME280;21561;55.654;37.592;2022-07-06T10:15:36;99070.03;;;29.29;49.25
35443;BME280;21561;55.654;37.592;2022-07-06T10:18:06;99031.56;;;29.77;47.08
35443;BME280;21561;55.654;37.592;2022-07-06T10:20:36;98961.56;;;30.27;45.22
35443;BME280;21561;55.654;37.592;2022-07-06T10:23:05;98849.34;;;30.52;42.15
35443;BME280;21561;55.654;37.592;2022-07-06T10:25:33;98867.31;;;30.34;42.92
35443;BME280;21561;55.654;37.592;2022-07-06T10:28:01;98866.56;;;30.76;42.33
35443;BME280;21561;55.654;37.592;2022-07-06T10:30:30;98795.72;;;31.05;40.31
35443;BME280;21561;55.654;37.592;2022-07-06T10:32:58;98765.31;;;31.14;40.13
35443;BME280;21561;55.654;37.592;2022-07-06T10:35:26;98741.41;;;30.86;39.90
35443;BME280;21561;55.654;37.592;2022-07-06T10:38:06;98753.94;;;31.28;39.88
35443;BME280;21561;55.654;37.592;2022-07-06T10:40:36;98760.81;;;30.80;40.55
35443;BME280;21561;55.654;37.592;2022-07-06T10:43:21;98839.75;;;31.02;41.85
35443;BME280;21561;55.654;37.592;2022-07-06T10:48:16;98921.91;;;30.41;43.97
35443;BME280;21561;55.654;37.592;2022-07-06T10:50:54;98960.88;;;30.25;43.95
35443;BME280;21561;55.654;37.592;2022-07-06T10:53:26;99005.16;;;29.64;45.39
35443;BME280;21561;55.654;37.592;2022-07-06T10:55:55;99060.75;;;29.23;46.53
35443;BME280;21561;55.654;37.592;2022-07-06T11:01:04;99131.94;;;29.15;48.11
35443;BME280;21561;55.654;37.592;2022-07-06T11:06:25;98936.00;;;30.69;42.66
35443;BME280;21561;55.654;37.592;2022-07-06T11:08:56;98894.31;;;31.35;42.27
35443;BME280;21561;55.654;37.592;2022-07-06T11:16:38;98816.84;;;31.75;40.48
35443;BME280;21561;55.654;37.592;2022-07-06T11:19:10;98738.22;;;31.91;39.31
35443;BME280;21561;55.654;37.592;2022-07-06T11:21:54;98762.66;;;31.96;39.46
35443;BME280;21561;55.654;37.592;2022-07-06T11:24:27;98788.41;;;31.31;40.02
35443;BME280;21561;55.654;37.592;2022-07-06T11:26:57;98779.28;;;31.67;39.81
35443;BME280;21561;55.654;37.592;2022-07-06T11:29:27;98769.28;;;31.10;40.48
35443;BME280;21561;55.654;37.592;2022-07-06T11:31:56;98847.69;;;30.51;41.88
35443;BME280;21561;55.654;37.592;2022-07-06T11:34:25;98904.94;;;30.14;43.31
35443;BME280;21561;55.654;37.592;2022-07-06T11:37:01;98901.47;;;30.66;41.97
35443;BME280;21561;55.654;37.592;2022-07-06T11:39:34;98900.38;;;30.77;42.26
35443;BME280;21561;55.654;37.592;2022-07-06T11:42:02;98871.53;;;31.39;40.91
35443;BME280;21561;55.654;37.592;2022-07-06T11:44:36;98806.28;;;32.14;40.23
35443;BME280;21561;55.654;37.592;2022-07-06T11:47:05;98751.09;;;32.12;39.48
35443;BME280;21561;55.654;37.592;2022-07-06T11:49:34;98743.91;;;32.04;39.76
35443;BME280;21561;55.654;37.592;2022-07-06T11:52:08;98808.16;;;31.22;40.94
35443;BME280;21561;55.654;37.592;2022-07-06T11:54:37;98862.66;;;30.18;41.78
35443;BME280;21561;55.654;37.592;2022-07-06T11:57:08;98927.69;;;30.00;43.30
35443;BME280;21561;55.654;37.592;2022-07-06T11:59:37;98964.13;;;29.56;43.71
35443;BME280;21561;55.654;37.592;2022-07-06T12:04:33;99005.16;;;29.64;44.16
35443;BME280;21561;55.654;37.592;2022-07-06T12:07:05;98972.19;;;30.55;42.87
35443;BME280;21561;55.654;37.592;2022-07-06T12:09:36;98910.44;;;30.83;41.95
35443;BME280;21561;55.654;37.592;2022-07-06T12:12:04;98899.66;;;30.93;41.71
35443;BME280;21561;55.654;37.592;2022-07-06T12:14:33;98854.03;;;31.11;40.47
35443;BME280;21561;55.654;37.592;2022-07-06T12:17:09;98825.63;;;31.34;40.43
35443;BME280;21561;55.654;37.592;2022-07-06T12:19:37;98813.56;;;31.30;40.46
35443;BME280;21561;55.654;37.592;2022-07-06T12:22:05;98838.13;;;30.83;41.86
35443;BME280;21561;55.654;37.592;2022-07-06T12:24:34;98873.28;;;30.80;41.81
35443;BME280;21561;55.654;37.592;2022-07-06T12:27:14;98861.03;;;31.12;41.42
35443;BME280;21561;55.654;37.592;2022-07-06T12:29:42;98871.97;;;30.58;42.51
35443;BME280;21561;55.654;37.592;2022-07-06T12:32:20;98907.84;;;30.39;43.08
35443;BME280;21561;55.654;37.592;2022-07-06T12:35:08;98944.81;;;30.25;43.94
35443;BME280;21561;55.654;37.592;2022-07-06T12:37:35;99011.59;;;29.72;46.10
35443;BME280;21561;55.654;37.592;2022-07-06T12:40:12;99052.88;;;29.97;46.09
35443;BME280;21561;55.654;37.592;2022-07-06T12:42:48;99057.34;;;29.78;46.35
35443;BME280;21561;55.654;37.592;2022-07-06T12:45:16;99138.94;;;29.16;49.43
35443;BME280;21561;55.654;37.592;2022-07-06T12:48:05;99216.41;;;29.16;49.46
35443;BME280;21561;55.654;37.592;2022-07-06T12:50:34;99114.34;;;29.69;46.59
35443;BME280;21561;55.654;37.592;2022-07-06T12:53:03;99096.97;;;29.45;47.31
35443;BME280;21561;55.654;37.592;2022-07-06T12:55:31;99083.94;;;29.80;45.93
35443;BME280;21561;55.654;37.592;2022-07-06T12:57:58;99018.06;;;30.06;44.31
35443;BME280;21561;55.654;37.592;2022-07-06T13:00:25;98986.88;;;30.15;43.99
35443;BME280;21561;55.654;37.592;2022-07-06T13:02:53;98996.94;;;29.85;44.68
35443;BME280;21561;55.654;37.592;2022-07-06T13:05:36;99011.53;;;29.63;45.63
35443;BME280;21561;55.654;37.592;2022-07-06T13:08:05;99027.84;;;29.33;45.96
35443;BME280;21561;55.654;37.592;2022-07-06T13:10:33;99025.88;;;29.25;45.33
35443;BME280;21561;55.654;37.592;2022-07-06T13:13:02;99030.56;;;29.50;45.46
35443;BME280;21561;55.654;37.592;2022-07-06T13:15:29;98977.53;;;29.83;44.19